Aérodrome :
LOGIN :

S'inscrire | Disclaimer

   EN    FR    IT 

 










Légende :    VFR   VFR Marginal   IFR   IFR Intensif   IFR Très Intensif
Visi : 
Plafond : 
>= 8 km
>= 3000ft
5 à 8 km
1000 à 3000 ft
1500m à 5 km
500 à 1000 ft
800 à 1500m
200 à 500 ft
< 800m
< 200 ft
Symboles :   Orages  Brouillard  Fortes neiges  Fortes précipitations  Vent > 20 kt
SIGMETs :   Divers  Orages  Givrage  Turbulence  Onde Orograph.  Cendres Volcan.







- Altitude de l'aérodrome : 326 ft
- Code IATA : LCG
- Voir les cartes d'approche


LECO - A Coruna

DERNIER METAR :
  • 191600Z 02007KT 310V080 CAVOK 22/16 Q1015 NOSIG

METARs EXPIRÉS :
  • 191530Z 36009KT 320V050 CAVOK 22/16 Q1015 NOSIG
  • 191500Z 35007KT 310V050 CAVOK 23/17 Q1015 NOSIG
  • 191430Z 02009KT 340V080 CAVOK 22/17 Q1015 NOSIG
  • 191400Z 02008KT 320V070 CAVOK 22/16 Q1015 NOSIG
  • 191330Z 02007KT 330V060 CAVOK 23/17 Q1016 NOSIG

TAF TAF LECO
Valide du 19 à 15h jusqu'au 20 à 15h UTC


191400Z 1915/2015 03010KT 9999 FEW010 SCT020 TX22/1915Z TN16/2006Z
PROB40
TEMPO 1915/1919 33012KT
PROB30
TEMPO 1917/1919 BKN014
BECMG 1918/1921 VRB05KT BKN012
PROB40
TEMPO 1921/2006 SCT012
PROB40
TEMPO 1920/2007 4000 -DZ BR BKN008
TEMPO 2006/2009 3000 -RADZ BR BKN004
BECMG 2011/2013 34010KT FEW015
Pas de NOTAMs connus pour ce terrain.



MET'MAP, la Météo Aéronautique d'un coup d'oeil ! - Copyright ORBIFLY Décembre 2007 - Disclaimer

ORBIFLY MET'MAP TEAM :

Programmation & Développement : Alexandra Zaïnal
Conception & Développement : Baudouin d'Aumeries
Co-Programmation & Développement : Marc-Olivier Méhu
Soutien technique & logistique : Manuel Goepfert

Contact : metmap@orbifly.com




SOURCES & CREDITS :

   NOAA